createdAt,value
2023-03-26T00:01:54.172Z,7.25
2023-03-26T00:04:21.984Z,11.23
2023-03-26T00:06:50.470Z,9.63
2023-03-26T00:09:18.700Z,11.88
2023-03-26T00:11:49.448Z,8.40
2023-03-26T00:14:17.996Z,12.85
2023-03-26T00:16:47.719Z,8.82
2023-03-26T00:19:15.803Z,10.88
2023-03-26T00:21:43.430Z,9.40
2023-03-26T00:24:15.445Z,15.23
2023-03-26T00:26:44.774Z,11.35
2023-03-26T00:29:14.057Z,6.78
2023-03-26T00:31:46.545Z,10.63
2023-03-26T00:34:18.908Z,9.23
2023-03-26T00:36:47.330Z,7.47
2023-03-26T00:39:17.954Z,10.68
2023-03-26T00:41:45.689Z,7.32
2023-03-26T00:44:13.589Z,6.55
2023-03-26T00:46:41.392Z,13.68
2023-03-26T00:49:11.082Z,12.03
2023-03-26T00:51:39.346Z,9.35
2023-03-26T00:54:09.777Z,9.10
2023-03-26T00:56:38.901Z,11.82
2023-03-26T00:59:06.624Z,13.88
2023-03-26T01:01:34.260Z,17.73
2023-03-26T01:04:27.526Z,9.73
2023-03-26T01:07:04.246Z,16.48
2023-03-26T01:09:35.569Z,14.20
2023-03-26T01:12:07.057Z,14.10
2023-03-26T01:14:35.330Z,38.23
2023-03-26T01:17:06.954Z,7.38
2023-03-26T01:19:44.868Z,13.82
2023-03-26T01:22:21.362Z,8.45
2023-03-26T01:24:53.832Z,7.20
2023-03-26T01:27:44.481Z,9.70
2023-03-26T01:30:27.443Z,9.77
2023-03-26T01:33:19.396Z,14.88
2023-03-26T01:36:04.428Z,12.45
2023-03-26T01:38:35.731Z,16.20
2023-03-26T01:41:27.171Z,12.43
2023-03-26T01:44:04.207Z,12.57
2023-03-26T01:46:37.398Z,9.50
2023-03-26T01:49:06.155Z,17.70
2023-03-26T01:51:35.552Z,9.68
2023-03-26T01:54:06.116Z,9.63
2023-03-26T01:56:53.693Z,7.68
2023-03-26T01:59:39.307Z,10.07
2023-03-26T02:02:38.874Z,11.88
2023-03-26T02:05:17.127Z,13.52
2023-03-26T02:07:59.877Z,9.37
2023-03-26T02:10:30.307Z,8.45
2023-03-26T02:12:59.104Z,10.73
2023-03-26T02:15:26.860Z,14.40
2023-03-26T02:17:54.958Z,6.65
2023-03-26T02:20:22.714Z,15.50
2023-03-26T02:22:50.340Z,9.18
2023-03-26T02:25:21.484Z,10.70
2023-03-26T02:27:52.799Z,8.57
2023-03-26T02:30:25.882Z,8.70
2023-03-26T02:32:59.350Z,7.70
2023-03-26T02:35:33.490Z,7.18
2023-03-26T02:38:02.907Z,9.52
2023-03-26T02:40:30.614Z,10.27
2023-03-26T02:42:58.890Z,9.38
2023-03-26T02:45:28.887Z,8.60
2023-03-26T02:48:16.890Z,7.50
2023-03-26T02:51:13.612Z,12.15
2023-03-26T02:54:02.392Z,10.02
2023-03-26T02:56:48.492Z,8.82
2023-03-26T02:59:27.502Z,12.57
2023-03-26T03:02:24.386Z,7.43
2023-03-26T03:05:01.662Z,9.50
2023-03-26T03:07:37.999Z,8.35
2023-03-26T03:10:08.814Z,7.05
2023-03-26T03:13:01.621Z,7.17
2023-03-26T03:15:29.502Z,8.57
2023-03-26T03:17:57.159Z,12.55
2023-03-26T03:20:30.662Z,11.25
2023-03-26T03:22:58.407Z,12.82
2023-03-26T03:25:26.183Z,9.57
2023-03-26T03:27:54.776Z,7.85
2023-03-26T03:30:22.461Z,8.30
2023-03-26T03:33:20.796Z,7.90
2023-03-26T03:35:49.697Z,12.50
2023-03-26T03:38:19.262Z,10.20
2023-03-26T03:40:50.041Z,10.23
2023-03-26T03:43:18.958Z,11.18
2023-03-26T03:46:00.452Z,6.35
2023-03-26T03:48:38.258Z,9.88
2023-03-26T03:51:07.508Z,11.40
2023-03-26T03:53:47.763Z,9.05
2023-03-26T03:56:19.698Z,4.72
2023-03-26T03:59:06.181Z,5.82
2023-03-26T04:01:35.916Z,11.20
2023-03-26T04:04:14.407Z,15.07
2023-03-26T04:06:54.241Z,7.68
2023-03-26T04:09:22.907Z,6.13
2023-03-26T04:11:51.139Z,7.68
2023-03-26T04:14:37.832Z,8.75
2023-03-26T04:17:13.563Z,6.63
2023-03-26T04:19:42.082Z,7.03
2023-03-26T04:22:12.029Z,9.57
2023-03-26T04:24:50.529Z,7.72
2023-03-26T04:27:37.390Z,7.32
2023-03-26T04:30:20.728Z,10.73
2023-03-26T04:33:06.546Z,10.38
2023-03-26T04:35:41.851Z,8.52
2023-03-26T04:38:12.070Z,8.23
2023-03-26T04:40:47.464Z,9.35
2023-03-26T04:43:47.143Z,9.97
2023-03-26T04:46:47.477Z,12.32
2023-03-26T04:49:27.754Z,7.07
2023-03-26T04:51:55.533Z,9.48
2023-03-26T04:54:54.870Z,9.38
2023-03-26T04:57:32.735Z,11.27
2023-03-26T05:00:20.262Z,8.88
2023-03-26T05:02:57.900Z,7.93
2023-03-26T05:05:28.072Z,6.22
2023-03-26T05:07:58.164Z,12.23
2023-03-26T05:10:26.160Z,7.03
2023-03-26T05:12:58.916Z,8.77
2023-03-26T05:15:30.054Z,8.35
2023-03-26T05:17:58.182Z,11.52
2023-03-26T05:20:40.229Z,8.57
2023-03-26T05:23:09.297Z,6.43
2023-03-26T05:25:39.022Z,9.10
2023-03-26T05:28:14.726Z,12.30
2023-03-26T05:30:53.350Z,8.48
2023-03-26T05:33:23.643Z,9.30
2023-03-26T05:36:09.568Z,8.73
2023-03-26T05:38:37.535Z,11.13
2023-03-26T05:41:09.989Z,10.80
2023-03-26T05:43:41.965Z,9.00
2023-03-26T05:46:12.894Z,9.68
2023-03-26T05:48:40.563Z,6.50
2023-03-26T05:51:09.137Z,7.45
2023-03-26T05:53:41.928Z,6.75
2023-03-26T05:56:12.790Z,7.25
2023-03-26T05:58:50.923Z,11.07
2023-03-26T06:01:39.829Z,13.43
2023-03-26T06:04:17.960Z,9.05
2023-03-26T06:07:11.470Z,4.40
2023-03-26T06:09:41.278Z,7.47
2023-03-26T06:12:10.786Z,4.30
2023-03-26T06:14:39.800Z,9.93
2023-03-26T06:17:14.317Z,6.50
2023-03-26T06:20:15.453Z,4.22
2023-03-26T06:22:46.777Z,3.85
2023-03-26T06:25:37.937Z,9.27
2023-03-26T06:28:22.182Z,5.20
2023-03-26T06:31:17.403Z,8.80
2023-03-26T06:33:54.285Z,7.72
2023-03-26T06:36:21.944Z,8.35
2023-03-26T06:38:50.977Z,7.88
2023-03-26T06:41:18.673Z,5.40
2023-03-26T06:44:21.413Z,6.93
2023-03-26T06:47:27.473Z,10.18
2023-03-26T06:50:14.288Z,6.82
2023-03-26T06:53:02.204Z,9.35
2023-03-26T06:55:42.897Z,6.20
2023-03-26T06:58:27.097Z,7.82
2023-03-26T07:01:13.727Z,10.15
2023-03-26T07:04:00.317Z,4.68
2023-03-26T07:06:46.507Z,6.07
2023-03-26T07:09:32.712Z,4.93
2023-03-26T07:12:03.038Z,6.70
2023-03-26T07:14:49.455Z,7.50
2023-03-26T07:17:35.501Z,9.43
2023-03-26T07:20:14.750Z,4.18
2023-03-26T07:22:43.274Z,11.97
2023-03-26T07:25:17.257Z,12.27
2023-03-26T07:28:05.482Z,9.55
2023-03-26T07:31:07.362Z,7.88
2023-03-26T07:34:04.606Z,10.38
2023-03-26T07:37:08.939Z,7.17
2023-03-26T07:40:01.095Z,11.15
2023-03-26T07:43:26.031Z,6.95
2023-03-26T07:46:31.993Z,5.32
2023-03-26T07:49:29.591Z,11.32
2023-03-26T07:52:10.929Z,7.17
2023-03-26T07:54:47.887Z,10.43
2023-03-26T07:57:53.296Z,7.10
2023-03-26T08:01:00.419Z,8.77
2023-03-26T08:04:24.924Z,6.47
2023-03-26T08:07:32.937Z,8.37
2023-03-26T08:10:19.299Z,7.35
2023-03-26T08:13:16.005Z,6.25
2023-03-26T08:15:50.085Z,5.38
2023-03-26T08:18:39.216Z,8.55
2023-03-26T08:21:10.035Z,8.73
2023-03-26T08:24:00.725Z,11.00
2023-03-26T08:26:35.920Z,7.63
2023-03-26T08:29:09.578Z,6.10
2023-03-26T08:31:41.429Z,7.57
2023-03-26T08:34:13.326Z,4.17
2023-03-26T08:36:41.370Z,4.55
2023-03-26T08:39:09.191Z,4.03
2023-03-26T08:41:52.087Z,8.75
2023-03-26T08:44:19.711Z,7.15
2023-03-26T08:47:15.382Z,8.03
2023-03-26T08:49:51.762Z,7.80
2023-03-26T08:52:41.978Z,7.70
2023-03-26T08:55:31.052Z,8.15
2023-03-26T08:58:33.477Z,6.15
2023-03-26T09:01:21.303Z,5.70
2023-03-26T09:04:04.080Z,5.78
2023-03-26T09:07:06.997Z,12.95
2023-03-26T09:09:40.890Z,6.30
2023-03-26T09:12:51.776Z,7.32
2023-03-26T09:15:37.659Z,7.30
2023-03-26T09:18:27.198Z,7.70
2023-03-26T09:21:22.472Z,4.72
2023-03-26T09:24:08.797Z,7.63
2023-03-26T09:26:55.204Z,5.60
2023-03-26T09:29:47.447Z,5.93
2023-03-26T09:32:33.756Z,5.97
2023-03-26T09:35:36.452Z,8.15
2023-03-26T09:38:39.366Z,5.57
2023-03-26T09:41:15.813Z,6.25
2023-03-26T09:44:12.728Z,6.53
2023-03-26T09:46:52.222Z,6.45
2023-03-26T09:49:33.316Z,10.80
2023-03-26T09:52:22.123Z,6.10
2023-03-26T09:55:28.664Z,8.02
2023-03-26T09:58:08.332Z,5.70
2023-03-26T10:00:50.094Z,6.47
2023-03-26T10:03:29.124Z,5.03
2023-03-26T10:06:12.978Z,6.25
2023-03-26T10:09:17.661Z,3.92
2023-03-26T10:12:06.287Z,8.07
2023-03-26T10:14:42.615Z,6.72
2023-03-26T10:17:13.962Z,4.15
2023-03-26T10:19:44.725Z,5.07
2023-03-26T10:22:27.484Z,8.15
2023-03-26T10:25:33.145Z,7.80
2023-03-26T10:28:20.377Z,4.03
2023-03-26T10:31:07.151Z,3.97
2023-03-26T10:33:49.927Z,6.15
2023-03-26T10:36:42.555Z,5.55
2023-03-26T10:39:38.114Z,6.07
2023-03-26T10:42:25.276Z,2.90
2023-03-26T10:45:07.813Z,4.53
2023-03-26T10:47:54.489Z,3.65
2023-03-26T10:50:57.698Z,4.15
2023-03-26T10:54:04.108Z,3.13
2023-03-26T10:56:39.417Z,5.95
2023-03-26T10:59:12.688Z,3.92
2023-03-26T11:02:29.374Z,8.70
2023-03-26T11:05:03.864Z,4.38
2023-03-26T11:07:41.607Z,5.37
2023-03-26T11:10:11.398Z,4.80
2023-03-26T11:12:41.596Z,4.00
2023-03-26T11:15:42.470Z,6.20
2023-03-26T11:18:42.241Z,4.65
2023-03-26T11:21:24.530Z,5.50
2023-03-26T11:24:13.777Z,7.40
2023-03-26T11:27:14.945Z,4.35
2023-03-26T11:30:11.381Z,5.80
2023-03-26T11:32:48.445Z,4.07
2023-03-26T11:35:40.280Z,4.07
2023-03-26T11:38:21.787Z,6.05
2023-03-26T11:40:53.624Z,2.80
2023-03-26T11:43:37.096Z,3.38
2023-03-26T11:46:38.262Z,4.47
2023-03-26T11:49:22.987Z,4.27
2023-03-26T11:51:50.924Z,3.70
2023-03-26T11:54:18.467Z,5.57
2023-03-26T11:57:05.497Z,4.07
2023-03-26T11:59:55.724Z,4.30
2023-03-26T12:02:29.309Z,3.73
2023-03-26T12:05:15.993Z,4.03
2023-03-26T12:07:55.904Z,5.00
2023-03-26T12:10:29.614Z,4.50
2023-03-26T12:13:00.589Z,6.00
2023-03-26T12:15:31.108Z,4.47
2023-03-26T12:18:18.044Z,2.65
2023-03-26T12:20:45.754Z,2.60
2023-03-26T12:23:51.848Z,5.22
2023-03-26T12:26:45.030Z,3.72
2023-03-26T12:29:16.658Z,3.20
2023-03-26T12:31:56.533Z,5.78
2023-03-26T12:34:36.525Z,4.28
2023-03-26T12:37:40.890Z,3.38
2023-03-26T12:40:26.101Z,3.08
2023-03-26T12:44:47.593Z,2.93
2023-03-26T12:45:44.927Z,4.82
2023-03-26T12:48:17.245Z,4.75
2023-03-26T12:51:07.008Z,4.13
2023-03-26T12:53:53.189Z,3.35
2023-03-26T12:56:27.371Z,3.03
2023-03-26T12:59:00.279Z,5.03
2023-03-26T13:01:40.762Z,4.70
2023-03-26T13:04:14.377Z,3.55
2023-03-26T13:06:59.298Z,2.20
2023-03-26T13:09:56.095Z,2.73
2023-03-26T13:12:23.701Z,2.33
2023-03-26T13:15:19.113Z,5.13
2023-03-26T13:18:28.212Z,6.47
2023-03-26T13:21:08.012Z,1.88
2023-03-26T13:23:47.463Z,4.67
2023-03-26T13:26:42.360Z,4.75
2023-03-26T13:29:12.627Z,3.13
2023-03-26T13:31:58.854Z,4.85
2023-03-26T13:34:56.052Z,2.72
2023-03-26T13:37:28.003Z,2.60
2023-03-26T13:40:14.315Z,3.67
2023-03-26T13:42:50.326Z,5.00
2023-03-26T13:45:43.174Z,7.22
2023-03-26T13:48:19.269Z,4.85
2023-03-26T13:51:05.047Z,3.93
2023-03-26T13:53:55.893Z,3.40
2023-03-26T13:56:31.465Z,3.88
2023-03-26T13:59:37.309Z,3.47
2023-03-26T14:02:23.762Z,3.67
2023-03-26T14:04:56.779Z,4.23
2023-03-26T14:07:32.374Z,3.47
2023-03-26T14:10:17.119Z,6.47
2023-03-26T14:12:57.117Z,3.83
2023-03-26T14:15:29.985Z,3.00
2023-03-26T14:18:48.881Z,3.03
2023-03-26T14:21:22.142Z,3.15
2023-03-26T14:24:21.393Z,2.00
2023-03-26T14:27:13.974Z,5.97
2023-03-26T14:30:05.854Z,4.72
2023-03-26T14:33:04.171Z,2.40
2023-03-26T14:35:41.617Z,3.90
2023-03-26T14:38:33.749Z,4.28
2023-03-26T14:41:10.657Z,2.78
2023-03-26T14:43:41.970Z,3.70
2023-03-26T14:46:41.616Z,5.70
2023-03-26T14:49:30.051Z,4.60
2023-03-26T14:52:21.485Z,2.10
2023-03-26T14:54:53.372Z,3.70
2023-03-26T14:57:57.974Z,2.17
2023-03-26T15:00:31.725Z,1.80
2023-03-26T15:03:07.535Z,2.95
2023-03-26T15:05:59.945Z,2.13
2023-03-26T15:09:14.311Z,2.88
2023-03-26T15:12:12.708Z,2.08
2023-03-26T15:14:59.865Z,1.87
2023-03-26T15:17:45.751Z,1.63
2023-03-26T15:20:26.184Z,4.90
2023-03-26T15:23:12.546Z,3.08
2023-03-26T15:25:58.910Z,1.60
2023-03-26T15:29:20.088Z,5.90
2023-03-26T15:32:10.180Z,1.92
2023-03-26T15:35:09.881Z,1.77
2023-03-26T15:38:05.859Z,4.95
2023-03-26T15:41:01.433Z,1.40
2023-03-26T15:44:24.834Z,1.37
2023-03-26T15:46:54.208Z,2.67
2023-03-26T15:49:29.811Z,3.08
2023-03-26T15:52:13.669Z,3.97
2023-03-26T15:54:53.531Z,1.33
2023-03-26T15:57:32.473Z,2.47
2023-03-26T16:00:15.459Z,2.20
2023-03-26T16:02:53.755Z,4.85
2023-03-26T16:05:51.736Z,3.20
2023-03-26T16:08:39.616Z,1.63
2023-03-26T16:11:12.805Z,1.73
2023-03-26T16:13:43.932Z,2.17
2023-03-26T16:16:21.087Z,2.30
2023-03-26T16:18:56.552Z,2.15
2023-03-26T16:21:32.449Z,3.08
2023-03-26T16:24:03.267Z,3.33
2023-03-26T16:26:52.037Z,3.25
2023-03-26T16:29:26.838Z,1.55
2023-03-26T16:32:19.179Z,1.83
2023-03-26T16:35:02.118Z,2.88
2023-03-26T16:37:36.461Z,1.90
2023-03-26T16:40:16.748Z,1.75
2023-03-26T16:43:15.082Z,4.13
2023-03-26T16:45:48.722Z,1.52
2023-03-26T16:48:53.746Z,1.92
2023-03-26T16:51:36.866Z,2.57
2023-03-26T16:54:18.495Z,1.25
2023-03-26T16:57:12.154Z,1.38
2023-03-26T17:00:16.600Z,2.80
2023-03-26T17:02:46.500Z,0.85
2023-03-26T17:05:25.431Z,2.03
2023-03-26T17:08:35.997Z,1.42
2023-03-26T17:11:15.561Z,1.05
2023-03-26T17:14:03.717Z,1.98
2023-03-26T17:16:41.804Z,1.65
2023-03-26T17:19:50.891Z,2.43
2023-03-26T17:22:39.289Z,1.17
2023-03-26T17:25:54.909Z,1.95
2023-03-26T17:28:46.083Z,3.45
2023-03-26T17:31:20.168Z,0.17
2023-03-26T17:33:48.287Z,0.70
2023-03-26T17:36:29.568Z,1.73
2023-03-26T17:39:04.953Z,1.52
2023-03-26T17:41:54.554Z,1.52
2023-03-26T17:44:43.999Z,1.92
2023-03-26T17:47:26.587Z,1.73
2023-03-26T17:50:00.387Z,2.15
2023-03-26T17:52:49.726Z,1.20
2023-03-26T17:55:27.820Z,2.17
2023-03-26T17:57:58.871Z,2.25
2023-03-26T18:00:29.806Z,0.80
2023-03-26T18:03:02.761Z,2.20
2023-03-26T18:05:31.269Z,3.15
2023-03-26T18:08:37.158Z,0.68
2023-03-26T18:11:25.349Z,1.48
2023-03-26T18:14:23.649Z,3.10
2023-03-26T18:16:53.926Z,2.50
2023-03-26T18:19:23.257Z,3.08
2023-03-26T18:21:56.968Z,2.95
2023-03-26T18:24:29.369Z,2.78
2023-03-26T18:27:02.136Z,3.07
2023-03-26T18:29:35.347Z,4.57
2023-03-26T18:32:09.437Z,3.75
2023-03-26T18:34:40.019Z,1.95
2023-03-26T18:37:23.958Z,3.72
2023-03-26T18:40:22.492Z,2.90
2023-03-26T18:42:58.624Z,2.85
2023-03-26T18:45:41.305Z,3.67
2023-03-26T18:48:38.399Z,4.60
2023-03-26T18:51:07.428Z,2.65
2023-03-26T18:53:43.265Z,5.17
2023-03-26T18:56:50.074Z,4.22
2023-03-26T18:59:32.569Z,4.00
2023-03-26T19:02:04.522Z,4.93
2023-03-26T19:04:34.316Z,4.72
2023-03-26T19:07:04.697Z,4.20
2023-03-26T19:09:32.755Z,3.85
2023-03-26T19:12:16.206Z,4.97
2023-03-26T19:14:56.256Z,5.18
2023-03-26T19:17:27.929Z,4.93
2023-03-26T19:19:57.352Z,6.80
2023-03-26T19:22:26.133Z,5.50
2023-03-26T19:25:01.082Z,6.45
2023-03-26T19:27:29.054Z,8.38
2023-03-26T19:29:57.511Z,6.63
2023-03-26T19:32:32.565Z,5.33
2023-03-26T19:35:04.055Z,4.05
2023-03-26T19:37:32.621Z,3.28
2023-03-26T19:40:07.340Z,4.38
2023-03-26T19:42:43.434Z,4.05
2023-03-26T19:45:18.802Z,5.63
2023-03-26T19:47:48.682Z,2.95
2023-03-26T19:50:25.947Z,6.15
2023-03-26T19:53:16.623Z,2.85
2023-03-26T19:56:13.432Z,10.55
2023-03-26T19:58:42.415Z,7.53
2023-03-26T20:01:16.164Z,4.75
2023-03-26T20:03:47.061Z,5.13
2023-03-26T20:06:17.374Z,7.45
2023-03-26T20:08:45.953Z,4.10
2023-03-26T20:11:20.262Z,6.40
2023-03-26T20:13:48.505Z,3.85
2023-03-26T20:16:29.361Z,4.20
2023-03-26T20:18:58.994Z,5.57
2023-03-26T20:21:26.797Z,5.28
2023-03-26T20:23:54.848Z,4.50
2023-03-26T20:26:24.090Z,4.55
2023-03-26T20:28:53.370Z,4.35
2023-03-26T20:31:26.836Z,5.25
2023-03-26T20:33:54.663Z,6.72
2023-03-26T20:36:33.778Z,5.07
2023-03-26T20:39:06.206Z,4.82
2023-03-26T20:41:34.987Z,4.07
2023-03-26T20:44:05.004Z,4.18
2023-03-26T20:46:33.317Z,5.95
2023-03-26T20:49:01.072Z,5.23
2023-03-26T20:51:29.097Z,5.40
2023-03-26T20:53:56.791Z,4.47
2023-03-26T20:56:24.341Z,5.93
2023-03-26T20:59:09.877Z,6.78
2023-03-26T21:01:38.769Z,5.60
2023-03-26T21:04:06.978Z,5.97
2023-03-26T21:06:34.853Z,5.97
2023-03-26T21:09:02.799Z,4.68
2023-03-26T21:11:45.920Z,7.20
2023-03-26T21:14:21.897Z,4.53
2023-03-26T21:16:49.910Z,7.50
2023-03-26T21:19:18.226Z,5.82
2023-03-26T21:22:10.850Z,5.97
2023-03-26T21:24:49.499Z,5.85
2023-03-26T21:27:26.466Z,5.77
2023-03-26T21:29:55.409Z,4.40
2023-03-26T21:32:23.433Z,4.30
2023-03-26T21:34:58.176Z,3.40
2023-03-26T21:37:26.962Z,2.78
2023-03-26T21:39:55.104Z,4.73
2023-03-26T21:42:26.917Z,5.22
2023-03-26T21:44:55.339Z,4.03
2023-03-26T21:47:23.190Z,4.53
2023-03-26T21:49:52.380Z,3.17
2023-03-26T21:52:22.630Z,3.80
2023-03-26T21:54:50.572Z,6.18
2023-03-26T21:57:45.022Z,4.25
2023-03-26T22:00:18.244Z,4.22
2023-03-26T22:02:45.832Z,6.25
2023-03-26T22:05:52.044Z,9.23
2023-03-26T22:08:40.065Z,4.13
2023-03-26T22:11:09.419Z,4.90
2023-03-26T22:13:38.865Z,3.67
2023-03-26T22:16:09.555Z,4.78
2023-03-26T22:18:37.346Z,6.20
2023-03-26T22:21:05.982Z,4.32
2023-03-26T22:23:38.087Z,3.55
2023-03-26T22:26:06.087Z,3.13
2023-03-26T22:28:33.688Z,3.90
2023-03-26T22:31:08.691Z,2.50
2023-03-26T22:33:36.705Z,5.03
2023-03-26T22:36:04.578Z,5.63
2023-03-26T22:38:32.173Z,9.45
2023-03-26T22:40:59.711Z,3.72
2023-03-26T22:43:27.278Z,3.90
2023-03-26T22:45:55.164Z,5.13
2023-03-26T22:48:23.799Z,5.72
2023-03-26T22:50:59.315Z,2.88
2023-03-26T22:53:27.249Z,8.30
2023-03-26T22:55:55.142Z,5.83
2023-03-26T22:58:22.922Z,3.90
2023-03-26T23:00:54.514Z,4.25
2023-03-26T23:03:35.027Z,4.53
2023-03-26T23:06:06.948Z,6.65
2023-03-26T23:08:37.473Z,6.23
2023-03-26T23:11:16.942Z,5.35
2023-03-26T23:13:45.620Z,3.92
2023-03-26T23:16:14.197Z,2.85
2023-03-26T23:18:42.241Z,2.40
2023-03-26T23:21:18.671Z,5.57
2023-03-26T23:23:47.529Z,4.03
2023-03-26T23:26:16.383Z,7.45
2023-03-26T23:28:44.183Z,4.22
2023-03-26T23:31:12.586Z,6.20
2023-03-26T23:33:46.678Z,6.27
2023-03-26T23:36:18.392Z,4.95
2023-03-26T23:38:48.074Z,5.68
2023-03-26T23:41:18.238Z,3.95
2023-03-26T23:43:54.203Z,4.30
2023-03-26T23:46:25.257Z,5.80
2023-03-26T23:48:53.225Z,6.22
2023-03-26T23:51:21.655Z,3.85
2023-03-26T23:53:49.698Z,3.72
2023-03-26T23:56:17.888Z,2.92
2023-03-26T23:58:45.580Z,3.33
